Terminal Aerodrome Forecast
Issued by NWS

Home | Current Version | Previous Version | Text Only | Print | Product List | Glossary On
Versions: 1 2 3 4 5 6 7 8 9 10 11 12 13 14 15 16
808
FTUS42 KILM 271720
TAFCRE
TAF
KCRE 271720Z 2718/2818 03007KT P6SM VCSH SCT025 SCT050
     FM280100 VRB02KT P6SM SCT020
      TEMPO 2809/2812 2SM BR
     FM281400 20006KT P6SM BKN200=

USA.gov is the U.S. government's official web portal to all federal, state and local government web resources and services.